Time;durP1;ratioP1;P1;durP2;ratioP2;P2;SDS_P1;SDS_P2;PMS_P1;PMS_P2;Temp;Humidity;BMP_temperature;BMP_pressure;BME280_temperature;BME280_humidity;BME280_pressure;Samples;Min_cycle;Max_cycle;Signal;HPM_P1;HPM_P2
2022/03/13 00:01:48;;;;;;;55.30;24.60;;;;;;;-5.38;58.71;101809.61;84372;1336;22601;-72
2022/03/13 00:03:57;;;;;;;60.20;26.90;;;;;;;-5.41;59.01;101807.56;83572;1338;1003164;-73
2022/03/13 00:06:08;;;;;;;64.60;28.10;;;;;;;-5.46;59.16;101806.52;84325;1338;25507;-72
2022/03/13 00:08:25;;;;;;;52.50;25.50;;;;;;;-5.50;59.26;101802.89;83648;1335;1003891;-71
2022/03/13 00:10:34;;;;;;;46.90;22.30;;;;;;;-5.54;59.52;101803.00;83681;1336;1003411;-71
2022/03/13 00:12:43;;;;;;;50.10;23.20;;;;;;;-5.60;59.58;101801.36;84390;1331;24261;-71
2022/03/13 00:14:56;;;;;;;55.90;25.90;;;;;;;-5.64;59.68;101797.73;84352;1339;22621;-70
2022/03/13 00:17:06;;;;;;;45.80;21.40;;;;;;;-5.68;59.88;101800.45;84384;1335;22595;-71
2022/03/13 00:19:16;;;;;;;48.20;21.00;;;;;;;-5.73;60.30;101803.29;84119;1339;22633;-71
2022/03/13 00:21:25;;;;;;;44.40;20.70;;;;;;;-5.77;60.28;101803.74;83553;1337;1002901;-70
2022/03/13 00:23:34;;;;;;;38.90;20.00;;;;;;;-5.81;60.80;101806.59;84371;1331;22765;-71
2022/03/13 00:25:44;;;;;;;40.00;20.00;;;;;;;-5.85;60.85;101805.34;84412;1335;25269;-71
2022/03/13 00:27:53;;;;;;;41.30;19.80;;;;;;;-5.89;61.05;101803.97;83563;1338;1003249;-71
2022/03/13 00:30:03;;;;;;;42.40;21.00;;;;;;;-5.93;61.35;101804.65;84378;1335;22614;-72
2022/03/13 00:32:12;;;;;;;42.40;21.70;;;;;;;-5.97;61.45;101799.34;84393;1339;22631;-71
2022/03/13 00:34:25;;;;;;;41.30;20.60;;;;;;;-6.01;61.35;101799.67;83657;1335;1003485;-71
2022/03/13 00:36:37;;;;;;;46.40;19.60;;;;;;;-6.04;61.83;101799.02;84355;1335;22776;-71
2022/03/13 00:38:47;;;;;;;39.10;20.80;;;;;;;-6.07;61.93;101797.63;84395;1335;22593;-71
2022/03/13 00:41:00;;;;;;;45.00;23.20;;;;;;;-6.09;62.25;101797.89;84387;1339;22604;-72
2022/03/13 00:43:09;;;;;;;37.70;20.80;;;;;;;-6.10;62.35;101799.52;84331;1338;22962;-71
2022/03/13 00:45:21;;;;;;;40.50;19.70;;;;;;;-6.10;62.63;101798.53;84305;1338;22603;-71
2022/03/13 00:47:30;;;;;;;36.00;17.30;;;;;;;-6.07;63.03;101794.73;84282;1333;24243;-70
2022/03/13 00:49:42;;;;;;;41.00;18.60;;;;;;;-6.03;63.42;101794.48;83646;1335;1003013;-71
2022/03/13 00:51:51;;;;;;;33.30;17.00;;;;;;;-5.97;63.56;101792.54;84380;1337;22596;-79
2022/03/13 00:54:00;;;;;;;37.50;17.40;;;;;;;-5.90;63.72;101792.38;84383;1337;24246;-79
2022/03/13 00:56:10;;;;;;;29.70;16.10;;;;;;;-5.84;63.59;101795.05;84368;1335;22814;-78
2022/03/13 00:58:18;;;;;;;;;;;;;;;-5.79;63.48;101792.61;84391;1335;22577;-78
2022/03/13 01:00:26;;;;;;;35.60;17.10;;;;;;;-5.69;63.70;101792.77;84381;1335;24319;-79
2022/03/13 01:02:39;;;;;;;41.60;19.40;;;;;;;-5.58;63.92;101788.70;84368;1327;22587;-79
2022/03/13 01:04:48;;;;;;;40.10;20.10;;;;;;;-5.54;63.47;101788.23;84407;1336;22625;-77
2022/03/13 01:07:00;;;;;;;46.80;21.70;;;;;;;-5.55;63.34;101784.14;84386;1335;22743;-80
2022/03/13 01:09:09;;;;;;;44.60;20.60;;;;;;;-5.56;63.31;101787.48;84371;1336;22608;-79
2022/03/13 01:11:19;;;;;;;41.20;20.70;;;;;;;-5.57;63.42;101781.77;83608;1340;1003779;-70
2022/03/13 01:13:29;;;;;;;43.00;19.70;;;;;;;-5.59;63.52;101785.96;84298;1338;22596;-70
2022/03/13 01:15:38;;;;;;;;;;;;;;;-5.63;63.40;101781.80;84264;1337;23912;-70
2022/03/13 01:17:47;;;;;;;37.10;20.20;;;;;;;-5.71;63.49;101781.10;84404;1336;25342;-70
2022/03/13 01:19:59;;;;;;;48.00;20.50;;;;;;;-5.76;63.39;101785.11;83484;1336;1003902;-75
2022/03/13 01:22:09;;;;;;;40.00;19.70;;;;;;;-5.82;63.61;101783.45;84375;1331;22617;-79
2022/03/13 01:24:44;;;;;;;39.00;20.20;;;;;;;-5.87;63.66;101784.67;84384;1335;26987;-79
2022/03/13 01:27:00;;;;;;;36.60;18.50;;;;;;;-5.94;63.66;101784.70;84365;1335;22616;-79
2022/03/13 01:29:10;;;;;;;36.50;17.60;;;;;;;-5.99;63.74;101782.24;84358;1336;22585;-79
2022/03/13 01:31:21;;;;;;;35.00;19.60;;;;;;;-6.03;63.88;101781.88;83661;1337;1003278;-78
2022/03/13 01:33:33;;;;;;;33.60;18.20;;;;;;;-6.07;64.01;101777.56;84407;1335;22590;-77
2022/03/13 01:35:44;;;;;;;32.30;17.40;;;;;;;-6.13;64.04;101778.48;84379;1335;25994;-78
2022/03/13 01:37:54;;;;;;;39.40;17.90;;;;;;;-6.18;63.99;101774.28;83537;1337;1003271;-78
2022/03/13 01:40:07;;;;;;;38.90;20.00;;;;;;;-6.23;63.98;101773.89;84387;1335;22558;-77
2022/03/13 01:42:16;;;;;;;31.90;17.10;;;;;;;-6.28;64.06;101773.30;84408;1336;22643;-79
2022/03/13 01:44:26;;;;;;;30.40;13.60;;;;;;;-6.32;64.20;101774.08;84377;1335;23943;-79
2022/03/13 01:46:34;;;;;;;;;;;;;;;-6.38;64.36;101775.12;84382;1335;24280;-79
2022/03/13 01:48:56;;;;;;;33.30;17.20;;;;;;;-6.44;64.32;101772.97;84374;1338;22604;-79
2022/03/13 01:51:05;;;;;;;35.40;17.00;;;;;;;-6.47;64.52;101773.43;84360;1335;22618;-69
2022/03/13 01:53:14;;;;;;;33.40;18.10;;;;;;;-6.50;64.55;101774.33;83687;1336;1003499;-71
2022/03/13 01:55:23;;;;;;;30.00;16.40;;;;;;;-6.51;64.63;101771.02;84299;1335;22589;-70
2022/03/13 01:57:37;;;;;;;33.20;17.20;;;;;;;-6.51;64.85;101772.41;84380;1338;22961;-71
2022/03/13 01:59:47;;;;;;;33.40;16.20;;;;;;;-6.48;64.86;101771.72;84372;1335;22630;-69
2022/03/13 02:01:59;;;;;;;32.10;15.90;;;;;;;-6.43;65.02;101767.55;84390;1339;22608;-70
2022/03/13 02:04:09;;;;;;;31.70;16.20;;;;;;;-6.37;64.91;101768.23;84367;1335;22627;-70
2022/03/13 02:06:20;;;;;;;30.20;16.80;;;;;;;-6.31;64.92;101773.09;84216;1338;22752;-70
2022/03/13 02:08:29;;;;;;;33.20;15.90;;;;;;;-6.26;64.85;101773.08;84397;1336;22596;-70
2022/03/13 02:10:41;;;;;;;28.70;15.60;;;;;;;-6.17;64.85;101775.02;84387;1336;25457;-71
2022/03/13 02:12:55;;;;;;;36.30;16.20;;;;;;;-6.09;64.93;101769.86;84399;1335;22777;-70
2022/03/13 02:15:06;;;;;;;29.40;16.50;;;;;;;-6.06;64.73;101775.30;84405;1335;24141;-69
2022/03/13 02:17:22;;;;;;;35.10;17.80;;;;;;;-6.04;64.61;101773.67;84396;1335;22598;-70
2022/03/13 02:19:31;;;;;;;32.30;17.20;;;;;;;-6.01;64.49;101772.68;84382;1335;24302;-71
2022/03/13 02:21:44;;;;;;;34.00;19.70;;;;;;;-6.01;64.38;101772.16;84013;1335;529064;-70
2022/03/13 02:23:53;;;;;;;35.60;19.20;;;;;;;-6.01;64.27;101775.16;84403;1330;23034;-69
2022/03/13 02:26:03;;;;;;;27.80;14.90;;;;;;;-6.04;64.04;101777.08;84396;1335;22711;-78
2022/03/13 02:28:12;;;;;;;35.20;18.00;;;;;;;-6.08;63.92;101779.92;84381;1336;23849;-79
2022/03/13 02:30:27;;;;;;;34.20;18.60;;;;;;;-6.09;63.79;101777.17;84401;1335;22670;-79
2022/03/13 02:32:35;;;;;;;39.10;20.10;;;;;;;-6.10;63.77;101779.14;84399;1329;22599;-79
2022/03/13 02:34:44;;;;;;;36.00;18.60;;;;;;;-6.12;63.87;101776.30;84330;1339;23880;-80
2022/03/13 02:37:04;;;;;;;37.30;19.10;;;;;;;-6.16;63.78;101781.54;84280;1337;22566;-70
2022/03/13 02:39:17;;;;;;;42.30;19.10;;;;;;;-6.22;63.71;101785.15;84281;1337;26016;-70
2022/03/13 02:41:27;;;;;;;40.30;19.40;;;;;;;-6.27;63.84;101789.16;84182;1338;23982;-78
2022/03/13 02:43:36;;;;;;;41.10;21.50;;;;;;;-6.32;63.97;101791.74;84227;1341;22621;-79
2022/03/13 02:45:45;;;;;;;43.30;20.60;;;;;;;-6.37;63.97;101786.21;84304;1339;23663;-80
2022/03/13 02:47:54;;;;;;;44.30;21.90;;;;;;;-6.41;64.15;101787.88;84285;1338;22654;-79
2022/03/13 02:50:03;;;;;;;38.50;20.40;;;;;;;-6.43;64.16;101788.93;84327;1336;22616;-76
2022/03/13 02:52:13;;;;;;;41.50;22.90;;;;;;;-6.46;64.33;101782.01;83565;1336;1003800;-80
2022/03/13 02:54:22;;;;;;;42.30;21.40;;;;;;;-6.49;64.45;101778.29;83565;1338;1003246;-79
2022/03/13 02:56:34;;;;;;;46.30;20.70;;;;;;;-6.51;64.57;101779.40;83943;1341;22603;-80
2022/03/13 02:58:43;;;;;;;41.50;21.80;;;;;;;-6.52;64.59;101778.61;84185;1338;22627;-79
2022/03/13 03:00:54;;;;;;;42.40;21.20;;;;;;;-6.51;64.40;101774.64;84262;1340;23954;-78
2022/03/13 03:03:02;;;;;;;44.20;21.50;;;;;;;-6.47;64.57;101774.98;84276;1338;26168;-80
2022/03/13 03:05:14;;;;;;;39.90;20.20;;;;;;;-6.41;64.67;101776.28;84217;1341;22616;-77
2022/03/13 03:07:23;;;;;;;38.40;21.50;;;;;;;-6.35;64.85;101774.27;84268;1336;22677;-78
2022/03/13 03:09:32;;;;;;;;;;;;;;;-6.26;64.87;101776.63;84297;1337;25331;-78
2022/03/13 03:11:41;;;;;;;37.90;19.00;;;;;;;-6.16;64.96;101771.00;84296;1337;22749;-69
2022/03/13 03:13:51;;;;;;;38.40;19.30;;;;;;;-6.03;64.87;101771.88;84206;1332;22617;-69
2022/03/13 03:15:59;;;;;;;;;;;;;;;-5.89;65.02;101767.95;84083;1341;25353;-79
2022/03/13 03:18:10;;;;;;;47.70;22.00;;;;;;;-5.77;65.03;101766.52;84264;1338;22622;-79
2022/03/13 03:20:23;;;;;;;54.50;24.40;;;;;;;-5.61;65.18;101765.26;84286;1339;22591;-79
2022/03/13 03:22:32;;;;;;;54.10;25.30;;;;;;;-5.49;64.97;101764.34;83591;1334;1002633;-80
2022/03/13 03:24:41;;;;;;;;;;;;;;;-5.39;64.75;101764.81;84299;1339;22594;-80
2022/03/13 03:26:53;;;;;;;52.90;25.50;;;;;;;-5.33;64.46;101759.72;84286;1332;22708;-79
2022/03/13 03:29:07;;;;;;;53.10;26.60;;;;;;;-5.23;64.37;101762.21;83375;1342;1003350;-80
2022/03/13 03:31:17;;;;;;;55.00;25.40;;;;;;;-5.16;64.74;101758.27;84279;1337;25449;-79
2022/03/13 03:33:26;;;;;;;44.20;20.80;;;;;;;-5.13;64.68;101758.08;84282;1337;23801;-78
2022/03/13 03:35:35;;;;;;;54.20;25.90;;;;;;;-5.10;65.27;101757.22;84316;1338;25333;-70
2022/03/13 03:37:47;;;;;;;51.60;24.70;;;;;;;-5.07;65.03;101757.57;84308;1334;25447;-70
2022/03/13 03:40:00;;;;;;;43.40;22.60;;;;;;;-5.03;65.13;101764.35;84347;1337;24081;-73
2022/03/13 03:42:10;;;;;;;49.70;23.90;;;;;;;-5.02;65.30;101759.16;84321;1339;22628;-79
2022/03/13 03:44:22;;;;;;;45.40;22.20;;;;;;;-5.00;65.27;101763.67;84307;1332;22613;-79
2022/03/13 03:46:35;;;;;;;49.50;24.70;;;;;;;-4.98;65.14;101764.09;84319;1338;23885;-79
2022/03/13 03:48:44;;;;;;;45.60;23.20;;;;;;;-4.96;65.24;101761.66;84421;1334;22750;-78
2022/03/13 03:50:53;;;;;;;50.90;24.50;;;;;;;-4.93;65.12;101758.86;84407;1336;22608;-80
2022/03/13 03:53:02;;;;;;;45.70;23.70;;;;;;;-4.90;64.73;101754.27;84368;1335;22764;-79
2022/03/13 03:55:12;;;;;;;41.20;21.80;;;;;;;-4.88;64.88;101757.91;84373;1335;23849;-71
2022/03/13 03:57:25;;;;;;;45.30;22.50;;;;;;;-4.85;64.98;101764.00;84285;1330;25515;-71
2022/03/13 03:59:34;;;;;;;51.50;25.10;;;;;;;-4.84;64.86;101761.50;84370;1334;22602;-71
2022/03/13 04:01:49;;;;;;;52.70;25.20;;;;;;;-4.83;64.75;101755.59;84251;1337;22641;-80
2022/03/13 04:03:59;;;;;;;43.70;22.00;;;;;;;-4.82;64.67;101747.84;84265;1334;22605;-79
2022/03/13 04:06:09;;;;;;;50.00;23.70;;;;;;;-4.81;64.77;101749.40;84254;1338;22649;-78
2022/03/13 04:08:17;;;;;;;;;;;;;;;-4.79;65.01;101754.42;83587;1337;1003603;-79
2022/03/13 04:10:27;;;;;;;44.40;23.70;;;;;;;-4.79;65.24;101755.96;84304;1338;25465;-77
2022/03/13 04:12:41;;;;;;;45.10;22.60;;;;;;;-4.77;65.29;101749.78;84278;1339;22606;-79
2022/03/13 04:14:53;;;;;;;41.30;21.90;;;;;;;-4.74;65.07;101746.12;84390;1335;24264;-78
2022/03/13 04:17:02;;;;;;;44.20;23.00;;;;;;;-4.72;65.18;101754.10;84376;1335;26481;-78
2022/03/13 04:19:11;;;;;;;41.50;22.50;;;;;;;-4.69;65.01;101752.31;83674;1335;1004111;-78
2022/03/13 04:21:20;;;;;;;48.20;24.30;;;;;;;-4.67;65.21;101747.85;84434;1334;25476;-70
2022/03/13 04:23:30;;;;;;;40.40;22.90;;;;;;;-4.64;65.01;101751.52;84375;1335;22780;-70
2022/03/13 04:25:39;;;;;;;43.00;24.50;;;;;;;-4.60;65.18;101745.60;84386;1336;22599;-76
2022/03/13 04:27:48;;;;;;;42.90;22.60;;;;;;;-4.56;65.47;101750.23;84381;1335;25993;-78
2022/03/13 04:30:00;;;;;;;53.10;24.50;;;;;;;-4.51;65.30;101750.79;84267;1338;22614;-75
2022/03/13 04:32:11;;;;;;;52.70;26.40;;;;;;;-4.44;65.40;101750.55;84241;1337;22677;-78
2022/03/13 04:34:23;;;;;;;58.70;27.90;;;;;;;-4.38;65.16;101752.88;83707;1332;1004706;-78
2022/03/13 04:36:35;;;;;;;57.40;28.30;;;;;;;-4.32;65.16;101750.77;84254;1338;22615;-70
2022/03/13 04:38:44;;;;;;;55.50;28.40;;;;;;;-4.27;65.12;101746.38;84348;1333;22909;-70
2022/03/13 04:40:54;;;;;;;56.10;29.70;;;;;;;-4.23;65.08;101747.76;84366;1335;24278;-70
2022/03/13 04:43:02;;;;;;;;;;;;;;;-4.19;65.21;101748.27;84337;1334;22577;-70
2022/03/13 04:45:18;;;;;;;58.60;29.00;;;;;;;-4.19;64.99;101748.63;84327;1337;22622;-70
2022/03/13 04:47:31;;;;;;;58.20;28.80;;;;;;;-4.19;65.00;101750.31;84307;1338;24309;-70
2022/03/13 04:49:41;;;;;;;68.60;31.10;;;;;;;-4.20;65.15;101752.65;84299;1337;25405;-71
2022/03/13 04:51:50;;;;;;;58.10;29.60;;;;;;;-4.22;65.19;101751.90;84245;1333;22607;-70
2022/03/13 04:53:59;;;;;;;58.80;29.20;;;;;;;-4.23;65.51;101751.84;84289;1338;22655;-70
2022/03/13 04:56:08;;;;;;;59.30;29.30;;;;;;;-4.26;65.23;101754.77;84409;1334;25281;-71
2022/03/13 04:58:18;;;;;;;51.40;23.80;;;;;;;-4.29;65.28;101756.70;84358;1334;26458;-70
2022/03/13 05:00:28;;;;;;;65.20;32.20;;;;;;;-4.32;65.12;101759.64;84368;1334;22619;-70
2022/03/13 05:02:37;;;;;;;62.10;30.30;;;;;;;-4.35;64.98;101762.90;84409;1334;22597;-70
2022/03/13 05:04:47;;;;;;;62.30;31.20;;;;;;;-4.39;64.99;101757.08;84373;1336;24083;-70
2022/03/13 05:06:59;;;;;;;70.10;31.40;;;;;;;-4.45;65.47;101758.55;84376;1334;24295;-70
2022/03/13 05:09:09;;;;;;;61.60;31.60;;;;;;;-4.50;65.32;101759.30;84398;1336;22754;-70
2022/03/13 05:11:18;;;;;;;66.90;32.30;;;;;;;-4.55;65.25;101757.04;83682;1339;1003589;-70
2022/03/13 05:13:27;;;;;;;66.20;33.20;;;;;;;-4.60;65.27;101760.40;84385;1335;25505;-70
2022/03/13 05:15:36;;;;;;;66.60;33.20;;;;;;;-4.65;65.46;101758.64;84405;1335;25445;-77
2022/03/13 05:17:46;;;;;;;75.60;33.70;;;;;;;-4.70;65.54;101760.81;83958;1335;1003989;-78
2022/03/13 05:19:55;;;;;;;61.60;31.70;;;;;;;-4.74;65.41;101764.55;83712;1334;1003045;-79
2022/03/13 05:22:08;;;;;;;59.10;31.10;;;;;;;-4.76;65.71;101767.52;84385;1335;22675;-71
2022/03/13 05:24:17;;;;;;;58.40;28.80;;;;;;;-4.77;65.81;101768.48;84256;1338;23962;-71
2022/03/13 05:26:26;;;;;;;67.10;31.40;;;;;;;-4.75;65.92;101769.26;84427;1329;24257;-78
2022/03/13 05:28:35;;;;;;;67.20;33.20;;;;;;;-4.71;66.05;101774.54;83693;1334;1003197;-79
2022/03/13 05:30:48;;;;;;;68.50;32.70;;;;;;;-4.70;66.03;101773.93;84399;1334;22832;-78
2022/03/13 05:32:57;;;;;;;73.20;35.20;;;;;;;-4.68;66.08;101776.41;84401;1331;22800;-78
2022/03/13 05:35:06;;;;;;;77.20;39.10;;;;;;;-4.67;66.00;101777.95;84429;1331;22644;-71
2022/03/13 05:37:15;;;;;;;64.10;28.90;;;;;;;-4.68;66.17;101778.95;83673;1339;1003693;-70
2022/03/13 05:39:28;;;;;;;77.40;36.20;;;;;;;-4.67;66.15;101779.86;84276;1332;22695;-70
2022/03/13 05:41:40;;;;;;;72.00;36.40;;;;;;;-4.65;66.05;101776.02;83689;1336;1003365;-70
2022/03/13 05:43:49;;;;;;;76.70;36.20;;;;;;;-4.61;66.16;101776.52;84402;1336;22743;-70
2022/03/13 05:45:58;;;;;;;76.60;36.70;;;;;;;-4.58;66.11;101776.83;84416;1335;22612;-79
2022/03/13 05:48:15;;;;;;;74.30;37.50;;;;;;;-4.54;66.00;101775.14;84404;1335;23059;-79
2022/03/13 05:50:25;;;;;;;86.50;39.90;;;;;;;-4.35;66.64;101780.95;84272;1338;23925;-72
2022/03/13 05:52:37;;;;;;;77.00;37.10;;;;;;;-3.80;67.14;101779.13;83689;1335;1003432;-70
2022/03/13 05:54:49;;;;;;;80.80;39.10;;;;;;;-3.04;67.03;101776.45;83554;1338;1003065;-69
2022/03/13 05:57:03;;;;;;;80.00;39.00;;;;;;;-2.16;66.69;101777.41;84373;1335;23986;-80
2022/03/13 05:59:13;;;;;;;85.50;42.70;;;;;;;-1.25;65.64;101774.88;84412;1335;22791;-80
2022/03/13 06:01:22;;;;;;;63.90;32.10;;;;;;;-0.26;64.48;101769.88;84285;1336;22586;-71
2022/03/13 06:03:31;;;;;;;95.20;48.70;;;;;;;0.89;62.55;101765.15;84235;1337;22765;-70
2022/03/13 06:05:42;;;;;;;88.90;46.10;;;;;;;1.92;60.97;101761.02;84416;1334;22618;-81
2022/03/13 06:07:55;;;;;;;91.90;45.70;;;;;;;2.92;59.80;101757.45;84420;1335;22764;-81
2022/03/13 06:10:03;;;;;;;90.60;47.30;;;;;;;3.93;58.01;101755.03;84142;1339;24396;-79
2022/03/13 06:12:16;;;;;;;86.10;46.60;;;;;;;4.80;56.28;101755.00;84409;1335;22616;-80
2022/03/13 06:14:23;;;;;;;91.50;48.60;;;;;;;5.72;53.56;101755.22;84387;1334;25476;-80
2022/03/13 06:16:35;;;;;;;87.80;49.20;;;;;;;6.55;50.93;101753.03;84402;1339;22628;-81
2022/03/13 06:18:43;;;;;;;89.30;50.40;;;;;;;7.23;48.80;101752.98;84427;1335;24254;-79
2022/03/13 06:20:53;;;;;;;107.50;53.20;;;;;;;7.61;45.41;101754.42;84445;1335;22595;-72
2022/03/13 06:23:03;;;;;;;91.40;51.50;;;;;;;7.93;43.84;101751.34;84382;1335;24119;-71
2022/03/13 06:25:14;;;;;;;96.80;52.00;;;;;;;8.14;43.19;101752.80;84420;1339;23804;-81
2022/03/13 06:27:21;;;;;;;98.00;53.00;;;;;;;8.17;42.05;101753.48;84387;1335;25467;-79
2022/03/13 06:29:31;;;;;;;101.70;53.30;;;;;;;8.23;42.01;101752.56;84384;1335;23967;-79
2022/03/13 06:31:39;;;;;;;89.30;51.40;;;;;;;8.27;41.10;101754.10;84387;1339;22760;-82
2022/03/13 06:33:46;;;;;;;90.60;52.20;;;;;;;8.48;40.66;101755.22;84385;1337;25439;-81
2022/03/13 06:35:52;;;;;;;96.10;52.60;;;;;;;8.64;40.56;101758.58;84380;1335;22601;-81
2022/03/13 06:37:58;;;;;;;93.60;50.50;;;;;;;8.49;40.04;101758.16;84403;1335;22606;-80
2022/03/13 06:40:10;;;;;;;91.10;49.20;;;;;;;8.47;39.50;101765.48;84328;1337;22870;-79
2022/03/13 06:42:18;;;;;;;94.30;47.50;;;;;;;8.43;38.74;101762.73;84444;1335;22900;-81
2022/03/13 06:44:25;;;;;;;83.50;47.20;;;;;;;8.24;38.39;101762.30;84443;1335;25954;-77
2022/03/13 06:46:32;;;;;;;86.70;48.00;;;;;;;8.23;37.87;101767.00;84402;1335;22996;-72
2022/03/13 06:48:39;;;;;;;87.40;47.30;;;;;;;8.38;37.63;101767.11;84402;1334;22647;-71
2022/03/13 06:50:45;;;;;;;80.70;44.80;;;;;;;8.47;37.73;101771.91;84438;1333;22743;-78
2022/03/13 06:52:53;;;;;;;82.10;43.70;;;;;;;8.79;37.28;101775.16;84369;1339;24134;-76
2022/03/13 06:55:00;;;;;;;74.20;40.00;;;;;;;9.23;36.53;101772.33;84417;1335;22762;-75
2022/03/13 06:57:07;;;;;;;60.80;35.50;;;;;;;9.58;35.86;101777.34;84390;1335;22646;-78
2022/03/13 06:59:17;;;;;;;54.50;33.50;;;;;;;9.98;34.43;101774.05;84335;1338;24249;-79
2022/03/13 07:01:28;;;;;;;52.60;33.00;;;;;;;10.51;32.77;101773.34;84163;1339;22597;-78
2022/03/13 07:03:38;;;;;;;53.20;32.90;;;;;;;10.84;31.92;101771.78;84394;1339;22601;-78
2022/03/13 07:05:48;;;;;;;50.10;32.00;;;;;;;11.15;30.92;101774.02;84414;1334;22861;-70
2022/03/13 07:07:57;;;;;;;57.80;33.20;;;;;;;11.30;30.57;101774.62;84395;1334;22750;-72
2022/03/13 07:10:04;;;;;;;52.60;32.00;;;;;;;11.23;29.77;101771.97;84321;1333;22554;-71
2022/03/13 07:12:11;;;;;;;51.70;30.10;;;;;;;11.22;29.91;101771.64;84321;1339;22610;-70
2022/03/13 07:14:21;;;;;;;50.00;30.90;;;;;;;10.95;29.71;101779.80;84349;1338;22614;-71
2022/03/13 07:16:32;;;;;;;50.30;31.90;;;;;;;10.69;28.91;101775.52;84408;1335;22587;-71
2022/03/13 07:18:42;;;;;;;52.80;32.10;;;;;;;10.57;29.62;101776.56;84404;1336;24358;-80
2022/03/13 07:20:54;;;;;;;58.80;34.20;;;;;;;10.91;30.11;101779.16;84365;1336;22596;-71
2022/03/13 07:23:01;;;;;;;59.60;34.00;;;;;;;11.34;29.46;101778.41;84330;1336;22600;-71
2022/03/13 07:25:08;;;;;;;54.60;34.50;;;;;;;11.78;29.40;101775.10;84345;1336;22594;-76
2022/03/13 07:27:15;;;;;;;59.40;35.10;;;;;;;12.28;28.26;101774.39;84399;1331;22623;-78
2022/03/13 07:29:22;;;;;;;58.90;34.70;;;;;;;12.60;28.09;101772.26;84263;1338;22846;-77
2022/03/13 07:31:32;;;;;;;60.30;37.20;;;;;;;12.78;26.91;101776.89;84372;1335;25379;-75
2022/03/13 07:33:39;;;;;;;60.70;35.50;;;;;;;12.80;26.67;101778.93;84311;1338;23951;-77
2022/03/13 07:35:46;;;;;;;61.50;39.30;;;;;;;12.88;26.69;101778.39;84337;1335;24020;-69
2022/03/13 07:37:52;;;;;;;53.30;34.70;;;;;;;13.11;26.61;101775.52;84384;1335;22596;-70
2022/03/13 07:40:02;;;;;;;56.00;35.60;;;;;;;13.47;26.11;101775.48;84402;1335;23981;-77
2022/03/13 07:42:13;;;;;;;65.70;37.90;;;;;;;13.62;24.87;101774.34;84393;1339;24141;-77
2022/03/13 07:44:23;;;;;;;64.00;38.10;;;;;;;13.90;24.87;101776.33;84404;1334;22619;-75
2022/03/13 07:46:30;;;;;;;57.80;37.20;;;;;;;14.20;24.50;101776.13;84256;1337;22593;-69
2022/03/13 07:48:44;;;;;;;61.60;35.80;;;;;;;14.45;24.28;101777.12;84401;1336;22597;-69
2022/03/13 07:50:57;;;;;;;58.00;35.90;;;;;;;14.83;24.23;101781.20;84399;1331;24273;-71
2022/03/13 07:53:07;;;;;;;63.70;38.20;;;;;;;15.39;23.16;101777.30;84298;1338;24155;-70
2022/03/13 07:55:16;;;;;;;63.10;39.20;;;;;;;15.94;23.25;101775.70;84108;1338;24392;-70
2022/03/13 07:57:28;;;;;;;54.50;35.90;;;;;;;16.34;22.13;101770.27;84389;1335;22769;-71
2022/03/13 07:59:35;;;;;;;59.30;36.40;;;;;;;16.73;22.04;101770.79;84234;1338;24011;-70
2022/03/13 08:01:42;;;;;;;59.30;37.00;;;;;;;17.16;21.59;101769.16;84324;1337;24199;-70
2022/03/13 08:03:51;;;;;;;58.30;37.70;;;;;;;17.63;21.54;101769.05;84291;1337;25309;-71
2022/03/13 08:05:58;;;;;;;54.40;36.60;;;;;;;17.91;20.01;101767.08;84392;1334;22579;-76
2022/03/13 08:08:05;;;;;;;51.90;35.80;;;;;;;17.87;20.34;101767.59;84412;1334;22641;-78
2022/03/13 08:10:12;;;;;;;55.10;37.10;;;;;;;18.20;19.95;101770.29;84401;1335;22594;-70
2022/03/13 08:12:22;;;;;;;54.00;35.90;;;;;;;18.27;19.25;101769.64;84293;1339;23919;-70
2022/03/13 08:14:31;;;;;;;54.20;37.80;;;;;;;17.92;19.12;101768.27;84313;1338;24357;-71
2022/03/13 08:16:38;;;;;;;50.90;35.40;;;;;;;18.05;20.38;101774.02;84234;1338;26212;-69
2022/03/13 08:18:45;;;;;;;57.10;37.10;;;;;;;18.49;19.45;101771.92;84290;1336;22616;-70
2022/03/13 08:20:53;;;;;;;55.10;35.30;;;;;;;18.59;19.49;101770.38;84406;1335;22599;-71
2022/03/13 08:23:02;;;;;;;64.90;39.60;;;;;;;18.87;19.35;101773.23;84142;1338;24036;-71
2022/03/13 08:25:16;;;;;;;54.70;38.40;;;;;;;19.22;19.25;101770.04;84306;1338;22630;-76
2022/03/13 08:27:28;;;;;;;57.60;38.50;;;;;;;19.63;18.71;101771.92;84295;1338;25335;-75
2022/03/13 08:29:37;;;;;;;56.10;36.00;;;;;;;19.86;18.47;101767.20;84237;1338;22589;-77
2022/03/13 08:31:49;;;;;;;48.90;34.00;;;;;;;20.05;18.37;101767.56;84327;1339;24225;-69
2022/03/13 08:33:58;;;;;;;53.70;35.30;;;;;;;20.25;17.22;101766.92;84307;1337;25461;-69
2022/03/13 08:36:07;;;;;;;53.80;36.40;;;;;;;20.23;17.94;101765.68;84244;1334;22893;-76
2022/03/13 08:38:19;;;;;;;49.70;34.90;;;;;;;20.51;17.93;101767.29;84372;1336;25311;-79
2022/03/13 08:40:30;;;;;;;63.10;39.30;;;;;;;20.78;17.90;101770.86;84360;1331;22621;-70
2022/03/13 08:42:39;;;;;;;44.20;30.80;;;;;;;20.80;17.12;101769.86;84293;1338;22875;-69
2022/03/13 08:44:54;;;;;;;50.50;33.80;;;;;;;20.62;16.49;101770.54;84319;1338;24213;-71
2022/03/13 08:47:04;;;;;;;46.30;32.70;;;;;;;20.49;17.07;101769.69;84260;1334;22599;-71
2022/03/13 08:49:13;;;;;;;43.90;31.30;;;;;;;20.63;17.03;101769.92;84289;1337;22606;-71
2022/03/13 08:51:23;;;;;;;44.80;30.80;;;;;;;20.78;17.18;101767.31;84303;1337;22644;-69
2022/03/13 08:53:32;;;;;;;40.90;30.40;;;;;;;21.11;17.59;101771.02;84274;1338;22702;-70
2022/03/13 08:55:48;;;;;;;45.20;31.50;;;;;;;21.47;16.91;101771.38;84257;1338;22605;-77
2022/03/13 08:57:57;;;;;;;40.10;29.10;;;;;;;21.46;16.59;101765.75;84292;1338;22612;-77
2022/03/13 09:00:11;;;;;;;45.00;31.80;;;;;;;21.40;16.33;101768.04;84218;1338;24134;-77
2022/03/13 09:02:22;;;;;;;44.40;30.90;;;;;;;21.35;16.65;101769.79;84283;1338;22706;-77
2022/03/13 09:04:30;;;;;;;42.70;31.20;;;;;;;21.28;16.35;101771.25;84355;1336;26521;-75
2022/03/13 09:06:46;;;;;;;38.30;26.80;;;;;;;21.25;16.96;101773.89;84264;1337;22724;-70
2022/03/13 09:08:58;;;;;;;45.70;32.10;;;;;;;21.22;16.60;101767.70;84271;1334;22619;-70
2022/03/13 09:11:08;;;;;;;38.60;28.40;;;;;;;21.09;16.60;101768.14;84246;1331;22592;-82
2022/03/13 09:13:19;;;;;;;50.00;34.20;;;;;;;21.06;16.86;101768.46;84270;1338;22777;-75
2022/03/13 09:15:26;;;;;;;47.10;29.80;;;;;;;21.21;16.78;101772.57;84293;1338;23792;-70
2022/03/13 09:17:33;;;;;;;46.90;28.00;;;;;;;21.34;16.59;101771.77;84390;1335;22622;-70
2022/03/13 09:19:43;;;;;;;40.90;27.50;;;;;;;21.33;16.47;101774.67;84335;1335;22608;-69
2022/03/13 09:21:53;;;;;;;36.30;26.20;;;;;;;21.32;16.71;101777.25;84379;1335;22597;-70
2022/03/13 09:23:59;;;;;;;33.70;25.30;;;;;;;21.42;16.47;101777.70;84377;1335;25464;-72
2022/03/13 09:26:07;;;;;;;39.50;27.70;;;;;;;21.47;16.51;101776.01;84350;1334;24170;-78
2022/03/13 09:28:13;;;;;;;39.00;28.10;;;;;;;21.48;16.88;101775.16;84368;1335;22604;-77
2022/03/13 09:30:20;;;;;;;35.20;27.30;;;;;;;21.57;16.14;101777.85;84344;1335;23623;-78
2022/03/13 09:32:27;;;;;;;39.30;27.90;;;;;;;21.62;16.50;101776.09;84361;1335;22717;-76
2022/03/13 09:34:34;;;;;;;33.90;24.70;;;;;;;21.62;16.17;101776.83;84385;1335;25326;-79
2022/03/13 09:36:42;;;;;;;37.20;26.10;;;;;;;21.51;16.32;101777.66;84367;1335;22859;-80
2022/03/13 09:38:49;;;;;;;40.20;28.70;;;;;;;21.44;16.55;101781.79;84311;1338;22598;-79
2022/03/13 09:40:56;;;;;;;40.40;28.00;;;;;;;21.40;16.39;101778.50;84311;1338;22664;-81
2022/03/13 09:43:06;;;;;;;56.60;34.20;;;;;;;21.52;16.56;101781.32;84397;1335;23989;-78
2022/03/13 09:45:16;;;;;;;39.30;27.50;;;;;;;21.56;16.51;101779.31;84375;1331;23923;-79
2022/03/13 09:47:24;;;;;;;34.30;22.60;;;;;;;21.43;16.37;101781.38;84302;1338;22688;-78
2022/03/13 09:49:32;;;;;;;30.70;24.00;;;;;;;21.42;16.46;101784.60;84313;1339;23951;-78
2022/03/13 09:51:38;;;;;;;37.50;26.70;;;;;;;21.17;16.14;101783.63;84310;1337;22612;-70
2022/03/13 09:53:46;;;;;;;29.20;20.00;;;;;;;20.97;16.72;101787.10;84277;1337;22725;-69